createdAt,value
2023-03-02T00:01:33.197Z,48.53
2023-03-02T00:04:02.883Z,53.78
2023-03-02T00:06:31.112Z,54.65
2023-03-02T00:09:00.814Z,57.47
2023-03-02T00:11:32.186Z,52.72
2023-03-02T00:13:59.130Z,60.53
2023-03-02T00:16:26.300Z,59.65
2023-03-02T00:18:53.329Z,48.42
2023-03-02T00:21:20.274Z,54.20
2023-03-02T00:23:47.180Z,54.97
2023-03-02T00:26:14.136Z,50.25
2023-03-02T00:28:41.244Z,47.97
2023-03-02T00:31:08.236Z,47.67
2023-03-02T00:33:35.471Z,46.63
2023-03-02T00:36:03.110Z,48.25
2023-03-02T00:38:30.297Z,50.55
2023-03-02T00:40:59.354Z,49.08
2023-03-02T00:43:28.202Z,48.33
2023-03-02T00:45:59.157Z,50.00
2023-03-02T00:48:26.132Z,47.20
2023-03-02T00:50:53.065Z,48.90
2023-03-02T00:53:20.020Z,50.10
2023-03-02T00:55:56.728Z,44.13
2023-03-02T00:58:23.790Z,47.92
2023-03-02T01:00:50.754Z,46.10
2023-03-02T01:03:17.813Z,45.25
2023-03-02T01:05:44.915Z,40.97
2023-03-02T01:08:12.535Z,41.80
2023-03-02T01:10:39.746Z,44.58
2023-03-02T01:13:07.143Z,44.17
2023-03-02T01:15:36.930Z,45.20
2023-03-02T01:18:06.398Z,43.35
2023-03-02T01:20:33.352Z,48.38
2023-03-02T01:23:00.397Z,45.92
2023-03-02T01:25:27.370Z,46.88
2023-03-02T01:27:54.495Z,48.35
2023-03-02T01:30:23.757Z,39.20
2023-03-02T01:32:50.713Z,40.58
2023-03-02T01:35:17.726Z,42.20
2023-03-02T01:37:44.653Z,44.47
2023-03-02T01:40:14.315Z,42.85
2023-03-02T01:42:47.484Z,41.45
2023-03-02T01:45:59.660Z,39.22
2023-03-02T01:48:38.391Z,30.88
2023-03-02T01:51:15.933Z,41.88
2023-03-02T01:53:46.931Z,37.15
2023-03-02T01:56:17.186Z,36.10
2023-03-02T01:58:44.510Z,34.70
2023-03-02T02:01:19.950Z,33.20
2023-03-02T02:03:50.739Z,34.97
2023-03-02T02:06:24.943Z,34.00
2023-03-02T02:08:53.403Z,36.42
2023-03-02T02:11:20.418Z,34.22
2023-03-02T02:13:47.372Z,34.58
2023-03-02T02:16:14.690Z,33.83
2023-03-02T02:18:41.924Z,37.72
2023-03-02T02:21:09.395Z,38.70
2023-03-02T02:24:00.556Z,34.50
2023-03-02T02:26:32.410Z,33.97
2023-03-02T02:29:08.052Z,36.25
2023-03-02T02:31:46.977Z,32.08
2023-03-02T02:34:15.782Z,36.30
2023-03-02T02:36:45.870Z,36.20
2023-03-02T02:39:21.147Z,32.03
2023-03-02T02:41:49.889Z,35.38
2023-03-02T02:44:17.889Z,33.80
2023-03-02T02:46:45.343Z,33.95
2023-03-02T02:49:32.211Z,36.50
2023-03-02T02:51:59.920Z,34.05
2023-03-02T02:54:27.043Z,34.65
2023-03-02T02:56:54.764Z,32.65
2023-03-02T02:59:24.802Z,38.20
2023-03-02T03:01:52.057Z,33.97
2023-03-02T03:04:25.897Z,32.40
2023-03-02T03:06:55.930Z,29.58
2023-03-02T03:09:23.391Z,31.13
2023-03-02T03:11:56.406Z,31.05
2023-03-02T03:14:28.688Z,30.15
2023-03-02T03:19:23.745Z,29.77
2023-03-02T03:21:53.574Z,28.27
2023-03-02T03:24:21.545Z,28.98
2023-03-02T03:26:48.730Z,30.98
2023-03-02T03:29:16.501Z,29.38
2023-03-02T03:31:43.555Z,26.73
2023-03-02T03:34:10.836Z,28.52
2023-03-02T03:36:38.150Z,27.88
2023-03-02T03:39:08.669Z,28.45
2023-03-02T03:41:35.561Z,26.98
2023-03-02T03:44:02.894Z,27.70
2023-03-02T03:46:30.657Z,30.63
2023-03-02T03:48:58.061Z,27.17
2023-03-02T03:51:25.511Z,23.98
2023-03-02T03:54:01.657Z,21.17
2023-03-02T03:56:33.561Z,24.98
2023-03-02T03:59:10.700Z,24.27
2023-03-02T04:01:39.515Z,22.52
2023-03-02T04:04:08.451Z,21.92
2023-03-02T04:06:35.614Z,21.75
2023-03-02T04:09:04.868Z,21.67
2023-03-02T04:11:37.801Z,17.35
2023-03-02T04:14:05.215Z,21.95
2023-03-02T04:16:33.221Z,19.92
2023-03-02T04:19:00.958Z,17.85
2023-03-02T04:21:28.472Z,18.15
2023-03-02T04:23:55.884Z,19.40
2023-03-02T04:26:22.785Z,19.23
2023-03-02T04:28:51.009Z,20.90
2023-03-02T04:31:20.594Z,21.52
2023-03-02T04:33:49.605Z,21.70
2023-03-02T04:36:16.562Z,19.80
2023-03-02T04:38:45.618Z,23.33
2023-03-02T04:41:12.562Z,23.88
2023-03-02T04:43:39.486Z,26.20
2023-03-02T04:46:06.425Z,33.22
2023-03-02T04:48:33.432Z,24.30
2023-03-02T04:51:00.400Z,32.95
2023-03-02T04:53:28.031Z,34.88
2023-03-02T04:55:54.960Z,38.92
2023-03-02T04:58:21.954Z,30.75
2023-03-02T05:00:48.872Z,24.55
2023-03-02T05:03:15.831Z,21.25
2023-03-02T05:05:42.715Z,25.95
2023-03-02T05:08:09.683Z,15.15
2023-03-02T05:10:37.555Z,17.65
2023-03-02T05:13:05.899Z,16.08
2023-03-02T05:15:35.859Z,18.90
2023-03-02T05:18:08.016Z,21.63
2023-03-02T05:23:06.658Z,18.83
2023-03-02T05:25:35.464Z,16.50
2023-03-02T05:28:02.641Z,37.13
2023-03-02T05:30:30.983Z,74.75
2023-03-02T05:33:00.597Z,90.55
2023-03-02T05:35:27.667Z,56.10
2023-03-02T05:37:54.624Z,235.25
2023-03-02T05:40:21.693Z,281.98
2023-03-02T05:42:48.777Z,217.68
2023-03-02T05:45:28.502Z,73.82
2023-03-02T05:47:58.037Z,66.72
2023-03-02T05:50:25.005Z,66.05
2023-03-02T05:52:51.938Z,52.08
2023-03-02T05:55:19.161Z,57.42
2023-03-02T05:57:46.542Z,43.25
2023-03-02T06:00:14.388Z,46.95
2023-03-02T06:02:41.645Z,30.88
2023-03-02T06:05:11.447Z,29.63
2023-03-02T06:07:38.458Z,18.70
2023-03-02T06:10:07.339Z,26.77
2023-03-02T06:12:34.395Z,22.05
2023-03-02T06:15:01.257Z,22.65
2023-03-02T06:17:28.208Z,18.38
2023-03-02T06:19:55.072Z,22.00
2023-03-02T06:22:22.062Z,19.45
2023-03-02T06:24:48.982Z,18.15
2023-03-02T06:27:15.900Z,19.85
2023-03-02T06:29:42.804Z,19.05
2023-03-02T06:32:10.611Z,27.90
2023-03-02T06:34:37.637Z,31.13
2023-03-02T06:37:04.524Z,29.70
2023-03-02T06:39:31.467Z,30.05
2023-03-02T06:42:00.454Z,21.58
2023-03-02T06:44:27.308Z,13.52
2023-03-02T06:46:54.171Z,13.57
2023-03-02T06:49:24.937Z,12.45
2023-03-02T06:51:51.861Z,15.52
2023-03-02T06:54:18.839Z,15.43
2023-03-02T06:56:45.765Z,13.85
2023-03-02T06:59:12.665Z,15.93
2023-03-02T07:01:39.699Z,16.98
2023-03-02T07:04:06.675Z,15.07
2023-03-02T07:06:33.645Z,14.00
2023-03-02T07:09:01.977Z,15.68
2023-03-02T07:11:31.761Z,10.68
2023-03-02T07:14:01.013Z,10.80
2023-03-02T07:16:28.860Z,10.63
2023-03-02T07:18:58.323Z,11.02
2023-03-02T07:21:25.231Z,12.27
2023-03-02T07:23:52.259Z,12.30
2023-03-02T07:26:19.268Z,11.60
2023-03-02T07:28:46.127Z,12.77
2023-03-02T07:31:13.315Z,12.82
2023-03-02T07:33:40.854Z,10.57
2023-03-02T07:36:08.601Z,9.23
2023-03-02T07:38:36.675Z,12.40
2023-03-02T07:41:07.915Z,10.02
2023-03-02T07:43:36.738Z,7.95
2023-03-02T07:46:05.178Z,12.13
2023-03-02T07:48:33.149Z,12.77
2023-03-02T07:51:05.115Z,17.08
2023-03-02T07:53:33.071Z,17.35
2023-03-02T07:56:02.292Z,12.80
2023-03-02T07:58:29.156Z,16.60
2023-03-02T08:00:56.257Z,23.05
2023-03-02T08:03:23.164Z,19.67
2023-03-02T08:05:50.115Z,18.02
2023-03-02T08:08:17.171Z,14.70
2023-03-02T08:10:45.412Z,16.40
2023-03-02T08:13:12.294Z,17.83
2023-03-02T08:15:39.405Z,16.50
2023-03-02T08:18:06.369Z,20.20
2023-03-02T08:20:33.270Z,16.58
2023-03-02T08:23:00.175Z,15.23
2023-03-02T08:25:27.160Z,19.92
2023-03-02T08:27:54.193Z,14.88
2023-03-02T08:30:21.285Z,19.55
2023-03-02T08:32:48.442Z,21.83
2023-03-02T08:35:15.482Z,19.40
2023-03-02T08:37:42.425Z,18.00
2023-03-02T08:40:10.104Z,15.63
2023-03-02T08:42:37.014Z,16.30
2023-03-02T08:45:04.237Z,17.48
2023-03-02T08:47:31.123Z,17.90
2023-03-02T08:49:58.010Z,26.38
2023-03-02T08:52:24.912Z,28.90
2023-03-02T08:54:51.871Z,23.65
2023-03-02T08:57:20.987Z,25.00
2023-03-02T08:59:52.437Z,21.45
2023-03-02T09:02:19.329Z,16.48
2023-03-02T09:04:46.300Z,15.27
2023-03-02T09:07:17.354Z,14.77
2023-03-02T09:09:44.599Z,14.20
2023-03-02T09:12:11.556Z,13.63
2023-03-02T09:14:38.398Z,17.02
2023-03-02T09:17:05.771Z,15.27
2023-03-02T09:19:37.668Z,20.30
2023-03-02T09:22:04.545Z,16.65
2023-03-02T09:24:31.448Z,16.15
2023-03-02T09:26:58.324Z,16.45
2023-03-02T09:29:25.298Z,22.02
2023-03-02T09:31:52.246Z,24.85
2023-03-02T09:34:19.321Z,14.77
2023-03-02T09:36:48.622Z,16.08
2023-03-02T09:39:15.531Z,22.33
2023-03-02T09:42:14.940Z,28.48
2023-03-02T09:45:03.141Z,15.88
2023-03-02T09:47:36.652Z,19.83
2023-03-02T09:50:06.633Z,20.55
2023-03-02T09:52:56.536Z,25.52
2023-03-02T09:55:26.377Z,19.58
2023-03-02T09:57:54.969Z,18.25
2023-03-02T10:00:27.373Z,20.30
2023-03-02T10:03:16.994Z,20.48
2023-03-02T10:05:47.311Z,22.88
2023-03-02T10:08:30.244Z,18.45
2023-03-02T10:11:05.957Z,17.55
2023-03-02T10:13:58.645Z,20.58
2023-03-02T10:16:38.557Z,21.42
2023-03-02T10:19:32.473Z,19.17
2023-03-02T10:22:01.609Z,18.23
2023-03-02T10:24:38.703Z,15.70
2023-03-02T10:27:42.345Z,12.73
2023-03-02T10:30:19.571Z,14.90
2023-03-02T10:32:52.136Z,18.10
2023-03-02T10:35:21.199Z,19.48
2023-03-02T10:37:48.736Z,20.05
2023-03-02T10:40:44.289Z,19.80
2023-03-02T10:43:15.781Z,14.27
2023-03-02T10:45:42.945Z,10.77
2023-03-02T10:48:12.664Z,14.93
2023-03-02T10:50:39.643Z,12.25
2023-03-02T10:53:08.662Z,11.27
2023-03-02T10:55:48.157Z,17.73
2023-03-02T10:58:39.238Z,13.23
2023-03-02T11:01:15.636Z,11.77
2023-03-02T11:03:42.654Z,15.05
2023-03-02T11:06:29.263Z,10.65
2023-03-02T11:09:07.209Z,8.48
2023-03-02T11:11:35.089Z,8.45
2023-03-02T11:14:18.129Z,9.85
2023-03-02T11:16:45.266Z,13.13
2023-03-02T11:19:24.247Z,7.82
2023-03-02T11:22:00.959Z,11.35
2023-03-02T11:24:39.535Z,13.13
2023-03-02T11:27:27.763Z,11.63
2023-03-02T11:30:03.600Z,9.35
2023-03-02T11:33:04.841Z,18.60
2023-03-02T11:35:34.746Z,13.60
2023-03-02T11:38:10.915Z,12.35
2023-03-02T11:41:03.389Z,15.80
2023-03-02T11:43:30.407Z,11.60
2023-03-02T11:46:10.831Z,14.35
2023-03-02T11:48:42.586Z,12.50
2023-03-02T11:51:19.099Z,11.95
2023-03-02T11:53:48.599Z,8.65
2023-03-02T11:56:15.955Z,12.13
2023-03-02T11:58:44.044Z,12.77
2023-03-02T12:01:15.852Z,12.48
2023-03-02T12:03:47.392Z,10.55
2023-03-02T12:06:26.208Z,12.30
2023-03-02T12:09:07.098Z,10.50
2023-03-02T12:11:38.877Z,11.30
2023-03-02T12:14:30.146Z,14.27
2023-03-02T12:16:58.633Z,10.15
2023-03-02T12:19:29.127Z,11.85
2023-03-02T12:22:09.906Z,15.10
2023-03-02T12:24:39.261Z,10.85
2023-03-02T12:27:24.731Z,16.02
2023-03-02T12:30:10.005Z,15.45
2023-03-02T12:32:39.797Z,11.98
2023-03-02T12:35:16.266Z,9.68
2023-03-02T12:37:51.193Z,12.82
2023-03-02T12:41:19.802Z,14.98
2023-03-02T12:43:55.426Z,9.50
2023-03-02T12:46:34.451Z,9.07
2023-03-02T12:49:08.945Z,9.38
2023-03-02T12:51:51.731Z,10.10
2023-03-02T12:54:28.065Z,10.68
2023-03-02T12:57:13.744Z,18.63
2023-03-02T12:59:40.924Z,11.68
2023-03-02T13:02:19.739Z,12.55
2023-03-02T13:05:00.723Z,12.88
2023-03-02T13:08:05.089Z,11.73
2023-03-02T13:10:43.210Z,11.38
2023-03-02T13:13:17.557Z,11.10
2023-03-02T13:15:53.446Z,10.60
2023-03-02T13:18:24.625Z,10.27
2023-03-02T13:20:52.073Z,12.05
2023-03-02T13:23:22.192Z,12.60
2023-03-02T13:25:52.768Z,11.95
2023-03-02T13:28:49.135Z,10.13
2023-03-02T13:31:23.869Z,11.45
2023-03-02T13:33:52.698Z,13.48
2023-03-02T13:36:21.112Z,8.57
2023-03-02T13:38:50.349Z,14.23
2023-03-02T13:41:51.570Z,11.68
2023-03-02T13:44:27.504Z,16.58
2023-03-02T13:46:54.673Z,14.18
2023-03-02T13:49:30.668Z,12.18
2023-03-02T13:52:07.737Z,7.90
2023-03-02T13:54:37.819Z,12.25
2023-03-02T13:57:05.466Z,14.43
2023-03-02T13:59:36.543Z,9.73
2023-03-02T14:02:21.525Z,18.43
2023-03-02T14:04:50.762Z,13.55
2023-03-02T14:07:18.136Z,13.10
2023-03-02T14:09:48.140Z,9.73
2023-03-02T14:12:33.009Z,17.70
2023-03-02T14:15:04.108Z,11.45
2023-03-02T14:17:31.219Z,13.67
2023-03-02T14:19:58.220Z,10.77
2023-03-02T14:22:26.818Z,10.48
2023-03-02T14:24:53.803Z,11.35
2023-03-02T14:27:20.733Z,10.70
2023-03-02T14:29:47.888Z,19.63
2023-03-02T14:32:15.994Z,10.30
2023-03-02T14:34:45.437Z,13.57
2023-03-02T14:37:15.680Z,12.90
2023-03-02T14:39:56.888Z,19.38
2023-03-02T14:42:24.422Z,17.65
2023-03-02T14:44:52.020Z,22.27
2023-03-02T14:47:19.854Z,12.80
2023-03-02T14:49:47.122Z,19.85
2023-03-02T14:52:21.811Z,25.00
2023-03-02T14:54:54.440Z,15.20
2023-03-02T14:57:25.414Z,13.88
2023-03-02T14:59:53.653Z,13.70
2023-03-02T15:02:26.000Z,12.65
2023-03-02T15:04:56.612Z,14.50
2023-03-02T15:07:25.254Z,13.38
2023-03-02T15:09:52.139Z,15.43
2023-03-02T15:12:19.099Z,15.45
2023-03-02T15:14:46.164Z,31.02
2023-03-02T15:17:13.109Z,12.38
2023-03-02T15:19:40.046Z,17.35
2023-03-02T15:22:07.143Z,13.05
2023-03-02T15:24:34.034Z,21.25
2023-03-02T15:27:01.095Z,24.40
2023-03-02T15:29:30.084Z,14.77
2023-03-02T15:31:57.112Z,14.18
2023-03-02T15:34:24.083Z,13.23
2023-03-02T15:36:53.236Z,8.60
2023-03-02T15:39:20.199Z,8.10
2023-03-02T15:41:47.149Z,11.95
2023-03-02T15:44:22.235Z,14.18
2023-03-02T15:46:50.247Z,13.80
2023-03-02T15:49:21.160Z,14.75
2023-03-02T15:51:48.911Z,10.65
2023-03-02T15:54:15.995Z,10.75
2023-03-02T15:56:45.150Z,11.20
2023-03-02T15:59:12.380Z,13.95
2023-03-02T16:01:39.345Z,11.23
2023-03-02T16:04:06.225Z,12.55
2023-03-02T16:06:33.184Z,11.32
2023-03-02T16:09:00.114Z,16.20
2023-03-02T16:11:27.072Z,10.48
2023-03-02T16:13:53.932Z,10.40
2023-03-02T16:16:21.589Z,10.45
2023-03-02T16:18:52.842Z,9.98
2023-03-02T16:21:22.606Z,11.75
2023-03-02T16:23:52.687Z,8.27
2023-03-02T16:26:21.215Z,9.98
2023-03-02T16:28:48.576Z,7.20
2023-03-02T16:31:18.582Z,8.80
2023-03-02T16:33:46.605Z,27.23
2023-03-02T16:36:14.657Z,24.98
2023-03-02T16:38:41.669Z,28.48
2023-03-02T16:41:20.863Z,34.78
2023-03-02T16:43:55.634Z,21.45
2023-03-02T16:46:23.512Z,18.05
2023-03-02T16:48:51.596Z,14.85
2023-03-02T16:51:19.635Z,15.63
2023-03-02T16:53:47.249Z,10.20
2023-03-02T16:56:14.700Z,8.15
2023-03-02T16:58:42.790Z,9.13
2023-03-02T17:01:15.262Z,7.90
2023-03-02T17:03:43.231Z,7.15
2023-03-02T17:06:14.882Z,7.63
2023-03-02T17:08:42.388Z,10.15
2023-03-02T17:11:09.467Z,21.63
2023-03-02T17:13:36.453Z,8.90
2023-03-02T17:16:05.573Z,9.27
2023-03-02T17:18:33.138Z,16.17
2023-03-02T17:21:00.194Z,19.08
2023-03-02T17:23:28.051Z,15.73
2023-03-02T17:25:56.120Z,71.35
2023-03-02T17:28:23.655Z,63.13
2023-03-02T17:30:50.892Z,101.45
2023-03-02T17:33:20.094Z,94.55
2023-03-02T17:35:51.572Z,106.07
2023-03-02T17:38:18.761Z,109.07
2023-03-02T17:40:45.633Z,126.75
2023-03-02T17:43:12.804Z,103.85
2023-03-02T17:45:39.919Z,119.32
2023-03-02T17:48:07.148Z,126.93
2023-03-02T17:50:34.087Z,114.00
2023-03-02T17:53:02.149Z,94.45
2023-03-02T17:55:29.565Z,95.65
2023-03-02T17:57:56.506Z,92.70
2023-03-02T18:00:24.079Z,82.97
2023-03-02T18:02:53.734Z,77.60
2023-03-02T18:05:21.867Z,75.32
2023-03-02T18:07:49.081Z,76.63
2023-03-02T18:10:16.209Z,73.45
2023-03-02T18:12:43.272Z,77.72
2023-03-02T18:15:11.322Z,77.95
2023-03-02T18:17:38.326Z,84.78
2023-03-02T18:20:05.833Z,77.95
2023-03-02T18:22:32.806Z,75.50
2023-03-02T18:24:59.845Z,83.43
2023-03-02T18:27:26.822Z,77.32
2023-03-02T18:29:53.848Z,77.72
2023-03-02T18:32:20.984Z,77.03
2023-03-02T18:34:48.316Z,78.40
2023-03-02T18:37:15.338Z,74.85
2023-03-02T18:39:44.815Z,76.80
2023-03-02T18:42:12.816Z,73.65
2023-03-02T18:44:40.122Z,80.80
2023-03-02T18:47:07.688Z,71.85
2023-03-02T18:49:34.714Z,71.47
2023-03-02T18:52:05.885Z,74.80
2023-03-02T18:54:35.428Z,73.20
2023-03-02T18:57:03.662Z,71.57
2023-03-02T18:59:30.659Z,69.30
2023-03-02T19:01:57.666Z,69.90
2023-03-02T19:04:26.844Z,69.60
2023-03-02T19:06:56.235Z,64.10
2023-03-02T19:09:23.717Z,65.78
2023-03-02T19:11:52.675Z,67.32
2023-03-02T19:14:19.683Z,64.03
2023-03-02T19:16:46.760Z,62.10
2023-03-02T19:19:14.190Z,69.53
2023-03-02T19:21:41.110Z,62.53
2023-03-02T19:24:08.630Z,73.75
2023-03-02T19:26:36.304Z,69.40
2023-03-02T19:29:04.437Z,70.35
2023-03-02T19:31:32.898Z,65.55
2023-03-02T19:34:00.477Z,64.65
2023-03-02T19:36:27.442Z,61.75
2023-03-02T19:38:54.322Z,68.18
2023-03-02T19:41:21.591Z,67.65
2023-03-02T19:43:48.869Z,68.05
2023-03-02T19:46:16.934Z,67.75
2023-03-02T19:48:44.352Z,61.53
2023-03-02T19:51:12.234Z,61.10
2023-03-02T19:53:42.085Z,65.90
2023-03-02T19:56:14.405Z,68.97
2023-03-02T19:58:47.393Z,68.60
2023-03-02T20:01:17.321Z,66.97
2023-03-02T20:03:48.064Z,72.32
2023-03-02T20:06:16.301Z,73.40
2023-03-02T20:08:43.743Z,82.63
2023-03-02T20:11:11.649Z,81.57
2023-03-02T20:13:39.111Z,74.82
2023-03-02T20:16:06.739Z,82.13
2023-03-02T20:18:35.738Z,87.95
2023-03-02T20:21:02.785Z,80.93
2023-03-02T20:23:32.231Z,84.90
2023-03-02T20:25:59.210Z,84.70
2023-03-02T20:28:26.691Z,86.55
2023-03-02T20:30:58.903Z,86.10
2023-03-02T20:35:55.484Z,81.65
2023-03-02T20:38:49.792Z,85.78
2023-03-02T20:41:17.628Z,98.32
2023-03-02T20:43:44.950Z,100.05
2023-03-02T20:46:22.350Z,106.13
2023-03-02T20:48:50.137Z,105.25
2023-03-02T20:51:19.316Z,96.47
2023-03-02T20:53:47.189Z,103.53
2023-03-02T20:56:18.558Z,98.15
2023-03-02T20:58:47.110Z,101.20
2023-03-02T21:01:15.296Z,99.32
2023-03-02T21:03:44.957Z,92.88
2023-03-02T21:06:13.046Z,88.00
2023-03-02T21:08:41.084Z,79.38
2023-03-02T21:11:15.680Z,80.88
2023-03-02T21:13:47.164Z,89.85
2023-03-02T21:16:18.594Z,91.00
2023-03-02T21:18:45.595Z,83.95
2023-03-02T21:21:12.576Z,79.55
2023-03-02T21:23:41.700Z,77.22
2023-03-02T21:26:10.149Z,74.13
2023-03-02T21:28:37.155Z,69.18
2023-03-02T21:31:04.370Z,64.85
2023-03-02T21:33:31.462Z,67.03
2023-03-02T21:35:58.363Z,70.32
2023-03-02T21:38:25.221Z,64.53
2023-03-02T21:40:52.173Z,66.00
2023-03-02T21:43:19.408Z,68.07
2023-03-02T21:45:46.453Z,74.30
2023-03-02T21:48:14.347Z,71.78
2023-03-02T21:50:41.706Z,74.88
2023-03-02T21:53:08.755Z,71.57
2023-03-02T21:55:36.978Z,72.93
2023-03-02T21:58:04.569Z,77.93
2023-03-02T22:00:34.917Z,74.28
2023-03-02T22:03:02.269Z,80.60
2023-03-02T22:05:29.363Z,74.15
2023-03-02T22:07:58.762Z,79.07
2023-03-02T22:10:37.033Z,73.35
2023-03-02T22:13:21.909Z,79.38
2023-03-02T22:16:13.355Z,79.50
2023-03-02T22:18:43.398Z,69.95
2023-03-02T22:21:36.154Z,85.93
2023-03-02T22:24:26.940Z,81.75
2023-03-02T22:26:59.184Z,81.25
2023-03-02T22:31:57.287Z,71.88
2023-03-02T22:34:30.472Z,62.97
2023-03-02T22:37:02.536Z,61.25
2023-03-02T22:39:32.295Z,66.13
2023-03-02T22:42:10.884Z,53.20
2023-03-02T22:44:38.080Z,59.03
2023-03-02T22:47:19.979Z,57.88
2023-03-02T22:49:47.803Z,61.95
2023-03-02T22:52:17.745Z,59.17
2023-03-02T22:54:45.812Z,64.57
2023-03-02T22:57:25.054Z,55.15
2023-03-02T22:59:51.954Z,59.22
2023-03-02T23:02:22.419Z,61.30
2023-03-02T23:04:52.136Z,58.65
2023-03-02T23:07:28.300Z,57.55
2023-03-02T23:09:55.177Z,54.63
2023-03-02T23:12:34.912Z,55.75
2023-03-02T23:15:02.249Z,48.53
2023-03-02T23:17:38.849Z,50.00
2023-03-02T23:20:16.321Z,49.20
2023-03-02T23:22:55.104Z,52.95
2023-03-02T23:25:22.252Z,57.53
2023-03-02T23:27:49.149Z,58.28
2023-03-02T23:30:18.318Z,54.92
2023-03-02T23:32:49.987Z,55.65
2023-03-02T23:35:16.969Z,50.95
2023-03-02T23:37:44.908Z,48.83
2023-03-02T23:40:12.326Z,54.28
2023-03-02T23:42:39.247Z,51.67
2023-03-02T23:45:06.699Z,52.65
2023-03-02T23:47:33.700Z,47.38
2023-03-02T23:50:03.110Z,51.10
2023-03-02T23:52:30.118Z,53.42
2023-03-02T23:54:57.097Z,50.95
2023-03-02T23:57:24.046Z,53.60
2023-03-02T23:59:50.996Z,52.28
